createdAt,value
2018-11-04T00:00:40.515Z,1.60
2018-11-04T00:03:09.193Z,1.60
2018-11-04T00:05:44.998Z,1.70
2018-11-04T00:08:13.527Z,1.70
2018-11-04T00:10:42.173Z,1.70
2018-11-04T00:13:10.880Z,1.60
2018-11-04T00:15:39.360Z,1.60
2018-11-04T00:18:12.607Z,1.70
2018-11-04T00:20:48.406Z,1.70
2018-11-04T00:23:17.001Z,1.80
2018-11-04T00:25:47.511Z,1.70
2018-11-04T00:28:16.058Z,1.60
2018-11-04T00:30:44.561Z,1.60
2018-11-04T00:33:16.717Z,1.50
2018-11-04T00:35:49.813Z,1.40
2018-11-04T00:38:19.493Z,1.40
2018-11-04T00:40:52.356Z,1.40
2018-11-04T00:43:21.045Z,1.40
2018-11-04T00:45:49.559Z,1.30
2018-11-04T00:48:18.156Z,1.30
2018-11-04T00:50:47.725Z,1.30
2018-11-04T00:53:16.327Z,1.40
2018-11-04T00:55:52.916Z,1.30
2018-11-04T00:58:23.227Z,1.30
2018-11-04T01:00:51.851Z,1.40
2018-11-04T01:03:20.436Z,1.40
2018-11-04T01:05:49.072Z,1.40
2018-11-04T01:08:17.591Z,1.50
2018-11-04T01:10:46.123Z,1.40
2018-11-04T01:13:14.719Z,1.30
2018-11-04T01:15:53.484Z,1.30
2018-11-04T01:18:22.102Z,1.30
2018-11-04T01:20:51.681Z,1.20
2018-11-04T01:23:20.223Z,1.20
2018-11-04T01:25:49.756Z,1.20
2018-11-04T01:28:18.308Z,1.20
2018-11-04T01:30:46.916Z,1.20
2018-11-04T01:33:17.546Z,1.30
2018-11-04T01:35:46.173Z,1.30
2018-11-04T01:38:16.827Z,1.40
2018-11-04T01:40:47.442Z,1.40
2018-11-04T01:43:16.004Z,1.60
2018-11-04T01:45:45.444Z,1.60
2018-11-04T01:48:14.047Z,1.60
2018-11-04T01:50:43.675Z,1.50
2018-11-04T01:53:19.416Z,1.40
2018-11-04T01:55:47.994Z,1.40
2018-11-04T01:58:16.616Z,1.40
2018-11-04T02:00:46.272Z,1.30
2018-11-04T02:03:14.819Z,1.30
2018-11-04T02:05:43.430Z,1.30
2018-11-04T02:08:11.963Z,1.30
2018-11-04T02:10:41.571Z,1.30
2018-11-04T02:13:10.157Z,1.30
2018-11-04T02:15:38.706Z,1.40
2018-11-04T02:18:07.323Z,1.40
2018-11-04T02:20:35.903Z,1.40
2018-11-04T02:23:04.563Z,1.50
2018-11-04T02:25:34.102Z,1.50
2018-11-04T02:28:03.024Z,1.40
2018-11-04T02:30:32.654Z,1.40
2018-11-04T02:33:03.297Z,1.30
2018-11-04T02:35:35.041Z,1.30
2018-11-04T02:38:03.652Z,1.50
2018-11-04T02:40:32.258Z,1.50
2018-11-04T02:43:00.830Z,1.60
2018-11-04T02:45:34.724Z,1.60
2018-11-04T02:48:03.308Z,1.50
2018-11-04T02:50:35.692Z,1.60
2018-11-04T02:53:04.443Z,1.50
2018-11-04T02:55:37.939Z,1.50
2018-11-04T02:58:11.156Z,1.60
2018-11-04T03:00:40.695Z,1.60
2018-11-04T03:03:13.140Z,1.60
2018-11-04T03:05:42.724Z,1.70
2018-11-04T03:08:11.303Z,1.70
2018-11-04T03:10:39.888Z,1.70
2018-11-04T03:13:12.499Z,1.70
2018-11-04T03:15:41.082Z,1.80
2018-11-04T03:18:10.812Z,1.80
2018-11-04T03:20:40.474Z,1.80
2018-11-04T03:23:12.535Z,1.80
2018-11-04T03:25:41.079Z,1.70
2018-11-04T03:28:11.626Z,1.70
2018-11-04T03:30:40.309Z,1.60
2018-11-04T03:33:09.533Z,1.60
2018-11-04T03:35:38.235Z,1.70
2018-11-04T03:38:07.369Z,1.60
2018-11-04T03:40:35.969Z,1.60
2018-11-04T03:43:05.046Z,1.60
2018-11-04T03:45:40.683Z,1.80
2018-11-04T03:48:10.303Z,1.80
2018-11-04T03:50:39.844Z,1.90
2018-11-04T03:53:08.600Z,2.10
2018-11-04T03:55:42.020Z,2.20
2018-11-04T03:58:11.608Z,2.40
2018-11-04T04:00:41.238Z,2.50
2018-11-04T04:03:09.829Z,2.60
2018-11-04T04:05:39.388Z,2.70
2018-11-04T04:08:07.959Z,2.70
2018-11-04T04:10:41.138Z,2.80
2018-11-04T04:13:09.790Z,2.90
2018-11-04T04:15:39.374Z,2.90
2018-11-04T04:18:08.986Z,3.00
2018-11-04T04:20:37.558Z,3.00
2018-11-04T04:23:06.280Z,3.10
2018-11-04T04:25:38.703Z,3.10
2018-11-04T04:28:07.268Z,3.20
2018-11-04T04:30:35.912Z,3.20
2018-11-04T04:33:05.716Z,3.30
2018-11-04T04:35:35.250Z,3.30
2018-11-04T04:38:06.200Z,3.40
2018-11-04T04:40:34.751Z,3.50
2018-11-04T04:43:06.448Z,3.50
2018-11-04T04:45:36.002Z,3.60
2018-11-04T04:48:04.985Z,3.60
2018-11-04T04:50:36.990Z,3.70
2018-11-04T04:53:05.924Z,3.70
2018-11-04T04:55:34.552Z,3.80
2018-11-04T04:58:03.101Z,3.80
2018-11-04T05:00:31.693Z,3.80
2018-11-04T05:03:00.257Z,3.80
2018-11-04T05:05:30.880Z,3.80
2018-11-04T05:08:00.435Z,3.80
2018-11-04T05:10:29.158Z,3.90
2018-11-04T05:12:57.708Z,3.90
2018-11-04T05:15:26.271Z,3.90
2018-11-04T05:17:54.871Z,3.90
2018-11-04T05:20:24.429Z,4.00
2018-11-04T05:22:53.020Z,4.10
2018-11-04T05:25:22.562Z,4.10
2018-11-04T05:27:51.219Z,4.10
2018-11-04T05:30:19.780Z,4.20
2018-11-04T05:32:49.356Z,4.20
2018-11-04T05:35:18.920Z,4.20
2018-11-04T05:37:47.584Z,4.20
2018-11-04T05:40:16.217Z,4.30
2018-11-04T05:42:44.855Z,4.30
2018-11-04T05:45:13.439Z,4.30
2018-11-04T05:47:45.237Z,4.40
2018-11-04T05:50:13.884Z,4.40
2018-11-04T05:52:42.380Z,4.40
2018-11-04T05:55:10.943Z,4.50
2018-11-04T05:57:39.535Z,4.60
2018-11-04T06:00:09.272Z,4.60
2018-11-04T06:02:37.876Z,4.70
2018-11-04T06:05:07.288Z,4.70
2018-11-04T06:07:35.804Z,4.70
2018-11-04T06:10:04.439Z,4.70
2018-11-04T06:12:33.059Z,4.70
2018-11-04T06:15:01.780Z,4.80
2018-11-04T06:17:30.415Z,4.80
2018-11-04T06:19:59.963Z,4.90
2018-11-04T06:22:29.496Z,4.90
2018-11-04T06:25:00.186Z,4.90
2018-11-04T06:27:29.814Z,4.90
2018-11-04T06:30:00.480Z,5.00
2018-11-04T06:32:31.082Z,5.00
2018-11-04T06:34:59.653Z,5.00
2018-11-04T06:37:28.227Z,5.10
2018-11-04T06:39:57.216Z,5.10
2018-11-04T06:42:25.898Z,5.10
2018-11-04T06:44:54.478Z,5.20
2018-11-04T06:47:24.078Z,5.20
2018-11-04T06:49:52.644Z,5.20
2018-11-04T06:52:23.335Z,5.30
2018-11-04T06:54:51.849Z,5.30
2018-11-04T06:57:21.418Z,5.30
2018-11-04T06:59:50.038Z,5.30
2018-11-04T07:02:18.661Z,5.30
2018-11-04T07:04:48.236Z,5.30
2018-11-04T07:07:22.380Z,5.40
2018-11-04T07:09:50.961Z,5.40
2018-11-04T07:12:22.717Z,5.40
2018-11-04T07:14:52.535Z,5.40
2018-11-04T07:17:25.032Z,5.50
2018-11-04T07:19:53.644Z,5.60
2018-11-04T07:22:22.305Z,5.70
2018-11-04T07:24:51.953Z,5.70
2018-11-04T07:27:20.565Z,5.80
2018-11-04T07:29:50.199Z,5.80
2018-11-04T07:32:21.882Z,5.80
2018-11-04T07:34:51.487Z,5.80
2018-11-04T07:37:22.105Z,5.90
2018-11-04T07:39:51.713Z,5.90
2018-11-04T07:42:22.319Z,5.90
2018-11-04T07:44:50.810Z,6.00
2018-11-04T07:47:19.393Z,6.00
2018-11-04T07:49:48.987Z,6.00
2018-11-04T07:52:17.575Z,6.10
2018-11-04T07:54:46.136Z,6.20
2018-11-04T07:59:52.192Z,6.40
2018-11-04T08:02:20.755Z,6.50
2018-11-04T08:04:50.396Z,6.60
2018-11-04T08:07:19.972Z,6.70
2018-11-04T08:09:48.528Z,6.80
2018-11-04T08:12:17.137Z,7.00
2018-11-04T08:14:45.671Z,7.10
2018-11-04T08:17:14.292Z,7.20
2018-11-04T08:19:42.858Z,7.10
2018-11-04T08:22:12.423Z,7.10
2018-11-04T08:24:41.012Z,7.00
2018-11-04T08:27:09.603Z,6.90
2018-11-04T08:29:38.196Z,6.90
2018-11-04T08:32:08.746Z,6.90
2018-11-04T08:34:37.309Z,6.90
2018-11-04T08:37:11.407Z,6.90
2018-11-04T08:39:40.033Z,6.90
2018-11-04T08:42:08.523Z,6.90
2018-11-04T08:44:38.039Z,6.90
2018-11-04T08:47:06.892Z,6.90
2018-11-04T08:49:35.425Z,6.90
2018-11-04T08:52:03.948Z,7.00
2018-11-04T08:54:33.617Z,7.10
2018-11-04T08:57:03.160Z,7.20
2018-11-04T08:59:32.714Z,7.20
2018-11-04T09:02:05.786Z,7.30
2018-11-04T09:04:34.476Z,7.40
2018-11-04T09:07:03.144Z,7.40
2018-11-04T09:09:32.712Z,7.50
2018-11-04T09:12:02.246Z,7.60
2018-11-04T09:14:30.871Z,7.70
2018-11-04T09:17:00.448Z,7.90
2018-11-04T09:19:29.127Z,8.10
2018-11-04T09:21:57.833Z,8.20
2018-11-04T09:24:26.371Z,8.30
2018-11-04T09:26:56.875Z,8.40
2018-11-04T09:29:25.503Z,8.60
2018-11-04T09:31:56.020Z,8.70
2018-11-04T09:34:24.634Z,8.80
2018-11-04T09:36:53.264Z,9.00
2018-11-04T09:39:23.856Z,9.00
2018-11-04T09:41:59.468Z,9.00
2018-11-04T09:44:28.060Z,9.10
2018-11-04T09:46:56.587Z,9.00
2018-11-04T09:49:29.588Z,9.10
2018-11-04T09:52:00.201Z,9.10
2018-11-04T09:54:30.843Z,9.00
2018-11-04T09:57:02.838Z,9.10
2018-11-04T09:59:31.456Z,9.10
2018-11-04T10:02:00.319Z,9.20
2018-11-04T10:04:28.854Z,9.20
2018-11-04T10:06:59.447Z,9.20
2018-11-04T10:09:27.976Z,9.30
2018-11-04T10:11:56.472Z,9.30
2018-11-04T10:14:28.569Z,9.20
2018-11-04T10:16:57.439Z,9.20
2018-11-04T10:19:27.263Z,9.30
2018-11-04T10:21:55.846Z,9.30
2018-11-04T10:24:24.443Z,9.40
2018-11-04T10:26:54.112Z,9.40
2018-11-04T10:29:28.372Z,9.50
2018-11-04T10:31:57.967Z,9.60
2018-11-04T10:34:27.511Z,9.70
2018-11-04T10:36:59.967Z,9.80
2018-11-04T10:39:28.548Z,9.90
2018-11-04T10:41:57.232Z,10.00
2018-11-04T10:44:25.804Z,10.10
2018-11-04T10:46:56.443Z,10.10
2018-11-04T10:49:30.661Z,10.10
2018-11-04T10:51:59.230Z,10.20
2018-11-04T10:54:28.806Z,10.20
2018-11-04T10:56:59.445Z,10.30
2018-11-04T10:59:30.060Z,10.40
2018-11-04T11:01:58.623Z,10.50
2018-11-04T11:04:27.238Z,10.60
2018-11-04T11:06:55.900Z,10.70
2018-11-04T11:09:24.450Z,10.80
2018-11-04T11:11:52.951Z,10.90
2018-11-04T11:14:21.537Z,11.10
2018-11-04T11:16:51.141Z,11.20
2018-11-04T11:19:21.696Z,11.30
2018-11-04T11:21:50.260Z,11.30
2018-11-04T11:24:18.929Z,11.40
2018-11-04T11:26:48.526Z,11.50
2018-11-04T11:29:24.235Z,11.50
2018-11-04T11:31:53.873Z,11.50
2018-11-04T11:34:22.474Z,11.60
2018-11-04T11:36:51.104Z,11.70
2018-11-04T11:39:19.668Z,11.70
2018-11-04T11:41:48.264Z,11.80
2018-11-04T11:44:16.857Z,11.80
2018-11-04T11:46:45.476Z,11.90
2018-11-04T11:49:14.015Z,11.90
2018-11-04T11:51:42.682Z,11.90
2018-11-04T11:54:15.351Z,11.90
2018-11-04T11:56:43.991Z,11.90
2018-11-04T11:59:14.732Z,11.90
2018-11-04T12:01:44.235Z,11.90
2018-11-04T12:04:12.979Z,12.00
2018-11-04T12:06:43.580Z,11.90
2018-11-04T12:09:15.248Z,11.90
2018-11-04T12:11:43.795Z,12.00
2018-11-04T12:14:16.535Z,12.00
2018-11-04T12:16:45.121Z,12.10
2018-11-04T12:19:13.748Z,12.20
2018-11-04T12:21:42.394Z,12.20
2018-11-04T12:24:11.011Z,12.10
2018-11-04T12:26:39.611Z,12.10
2018-11-04T12:29:09.313Z,12.10
2018-11-04T12:31:37.932Z,12.20
2018-11-04T12:34:06.579Z,12.30
2018-11-04T12:36:35.259Z,12.40
2018-11-04T12:39:09.487Z,12.50
2018-11-04T12:41:38.056Z,12.50
2018-11-04T12:44:06.714Z,12.50
2018-11-04T12:46:35.359Z,12.50
2018-11-04T12:49:03.948Z,12.60
2018-11-04T12:51:32.499Z,12.70
2018-11-04T12:54:01.120Z,12.60
2018-11-04T12:56:29.790Z,12.60
2018-11-04T12:59:00.363Z,12.60
2018-11-04T13:01:29.007Z,12.50
2018-11-04T13:03:57.529Z,12.70
2018-11-04T13:06:27.066Z,12.60
2018-11-04T13:09:00.477Z,12.60
2018-11-04T13:11:29.149Z,12.60
2018-11-04T13:13:57.852Z,12.60
2018-11-04T13:16:26.555Z,12.70
2018-11-04T13:18:55.156Z,12.70
2018-11-04T13:21:25.022Z,12.70
2018-11-04T13:23:53.591Z,12.70
2018-11-04T13:26:22.131Z,12.70
2018-11-04T13:28:50.691Z,12.60
2018-11-04T13:31:27.944Z,12.60
2018-11-04T13:33:56.503Z,12.60
2018-11-04T13:36:26.154Z,12.60
2018-11-04T13:38:54.687Z,12.50
2018-11-04T13:41:24.298Z,12.50
2018-11-04T13:43:54.839Z,12.50
2018-11-04T13:46:23.445Z,12.50
2018-11-04T13:48:52.054Z,12.50
2018-11-04T13:51:20.684Z,12.50
2018-11-04T13:53:50.273Z,12.60
2018-11-04T13:56:20.784Z,12.60
2018-11-04T13:58:49.959Z,12.60
2018-11-04T14:01:18.491Z,12.60
2018-11-04T14:03:47.149Z,12.70
2018-11-04T14:06:17.772Z,12.70
2018-11-04T14:08:46.402Z,12.70
2018-11-04T14:11:20.016Z,12.70
2018-11-04T14:13:48.552Z,12.80
2018-11-04T14:16:17.156Z,12.80
2018-11-04T14:18:46.775Z,12.80
2018-11-04T14:21:15.342Z,12.80
2018-11-04T14:23:44.954Z,12.80
2018-11-04T14:26:13.571Z,12.70
2018-11-04T14:28:42.239Z,12.70
2018-11-04T14:31:11.822Z,12.60
2018-11-04T14:33:40.493Z,12.60
2018-11-04T14:36:10.090Z,12.60
2018-11-04T14:38:39.631Z,12.60
2018-11-04T14:41:08.255Z,12.60
2018-11-04T14:43:37.862Z,12.50
2018-11-04T14:46:10.037Z,12.50
2018-11-04T14:48:40.632Z,12.50
2018-11-04T14:51:09.155Z,12.50
2018-11-04T14:53:37.933Z,12.50
2018-11-04T14:56:06.904Z,12.40
2018-11-04T14:58:35.479Z,12.40
2018-11-04T15:01:04.215Z,12.40
2018-11-04T15:03:35.850Z,12.30
2018-11-04T15:06:04.460Z,12.30
2018-11-04T15:08:33.053Z,12.30
2018-11-04T15:11:02.763Z,12.20
2018-11-04T15:13:32.340Z,12.20
2018-11-04T15:16:00.942Z,12.10
2018-11-04T15:18:29.644Z,12.00
2018-11-04T15:20:58.350Z,12.00
2018-11-04T15:23:28.196Z,11.90
2018-11-04T15:25:56.810Z,11.90
2018-11-04T15:28:25.403Z,11.90
2018-11-04T15:30:53.971Z,11.80
2018-11-04T15:33:25.695Z,11.80
2018-11-04T15:35:55.285Z,11.80
2018-11-04T15:38:23.926Z,11.70
2018-11-04T15:40:52.555Z,11.70
2018-11-04T15:43:24.880Z,11.70
2018-11-04T15:45:53.474Z,11.70
2018-11-04T15:48:22.137Z,11.60
2018-11-04T15:50:51.782Z,11.60
2018-11-04T15:53:20.347Z,11.60
2018-11-04T15:55:50.031Z,11.50
2018-11-04T15:58:18.619Z,11.50
2018-11-04T16:00:49.247Z,11.50
2018-11-04T16:03:17.879Z,11.40
2018-11-04T16:05:46.531Z,11.40
2018-11-04T16:08:16.189Z,11.30
2018-11-04T16:10:45.823Z,11.30
2018-11-04T16:13:16.504Z,11.20
2018-11-04T16:15:47.164Z,11.20
2018-11-04T16:18:15.837Z,11.20
2018-11-04T16:20:45.383Z,11.20
2018-11-04T16:23:15.023Z,11.10
2018-11-04T16:25:46.820Z,11.10
2018-11-04T16:28:16.353Z,11.10
2018-11-04T16:30:45.904Z,11.10
2018-11-04T16:33:14.555Z,11.00
2018-11-04T16:35:43.095Z,11.00
2018-11-04T16:38:11.720Z,11.00
2018-11-04T16:40:40.311Z,10.90
2018-11-04T16:43:09.264Z,10.90
2018-11-04T16:45:41.092Z,10.80
2018-11-04T16:48:09.831Z,10.90
2018-11-04T16:50:38.516Z,10.80
2018-11-04T16:53:08.167Z,10.90
2018-11-04T16:55:36.666Z,10.90
2018-11-04T16:58:05.651Z,10.90
2018-11-04T17:00:34.295Z,10.90
2018-11-04T17:03:02.917Z,10.80
2018-11-04T17:05:32.793Z,10.80
2018-11-04T17:08:01.210Z,10.80
2018-11-04T17:10:30.928Z,10.80
2018-11-04T17:12:59.527Z,10.80
2018-11-04T17:15:29.121Z,10.80
2018-11-04T17:17:57.743Z,10.80
2018-11-04T17:20:27.398Z,10.80
2018-11-04T17:22:56.020Z,10.80
2018-11-04T17:25:27.834Z,10.80
2018-11-04T17:27:57.551Z,10.80
2018-11-04T17:30:29.924Z,10.80
2018-11-04T17:32:58.573Z,10.70
2018-11-04T17:35:28.417Z,10.70
2018-11-04T17:37:57.215Z,10.70
2018-11-04T17:40:25.847Z,10.60
2018-11-04T17:42:54.511Z,10.60
2018-11-04T17:45:23.136Z,10.60
2018-11-04T17:47:52.803Z,10.60
2018-11-04T17:50:21.444Z,10.50
2018-11-04T17:52:50.066Z,10.50
2018-11-04T17:55:18.707Z,10.50
2018-11-04T17:57:47.394Z,10.50
2018-11-04T18:00:17.987Z,10.50
2018-11-04T18:02:46.567Z,10.50
2018-11-04T18:05:15.289Z,10.60
2018-11-04T18:07:44.520Z,10.60
2018-11-04T18:10:16.075Z,10.50
2018-11-04T18:12:44.810Z,10.50
2018-11-04T18:15:14.515Z,10.50
2018-11-04T18:17:43.150Z,10.50
2018-11-04T18:20:13.091Z,10.50
2018-11-04T18:22:41.844Z,10.50
2018-11-04T18:25:12.312Z,10.40
2018-11-04T18:27:40.946Z,10.40
2018-11-04T18:30:12.519Z,10.30
2018-11-04T18:32:43.897Z,10.20
2018-11-04T18:35:12.550Z,10.10
2018-11-04T18:37:41.258Z,10.10
2018-11-04T18:40:11.948Z,10.00
2018-11-04T18:42:41.982Z,9.90
2018-11-04T18:45:11.853Z,9.90
2018-11-04T18:47:40.724Z,9.80
2018-11-04T18:50:10.676Z,9.80
2018-11-04T18:52:39.414Z,9.80
2018-11-04T18:55:13.010Z,9.80
2018-11-04T18:57:43.186Z,9.80
2018-11-04T19:00:14.181Z,9.80
2018-11-04T19:02:46.435Z,9.80
2018-11-04T19:05:15.207Z,9.70
2018-11-04T19:07:44.015Z,9.70
2018-11-04T19:10:15.988Z,9.60
2018-11-04T19:12:48.473Z,9.50
2018-11-04T19:15:17.085Z,9.40
2018-11-04T19:17:47.864Z,9.30
2018-11-04T19:20:17.390Z,9.20
2018-11-04T19:22:46.083Z,9.10
2018-11-04T19:25:15.583Z,9.00
2018-11-04T19:27:44.256Z,8.90
2018-11-04T19:30:18.763Z,8.90
2018-11-04T19:32:50.922Z,8.80
2018-11-04T19:35:21.082Z,8.70
2018-11-04T19:37:49.713Z,8.70
2018-11-04T19:40:22.603Z,8.60
2018-11-04T19:42:55.299Z,8.60
2018-11-04T19:45:27.195Z,8.50
2018-11-04T19:47:55.873Z,8.40
2018-11-04T19:50:25.372Z,8.30
2018-11-04T19:52:55.934Z,8.20
2018-11-04T19:55:24.468Z,8.10
2018-11-04T19:57:53.158Z,8.10
2018-11-04T20:00:21.656Z,8.00
2018-11-04T20:02:50.280Z,8.00
2018-11-04T20:05:19.024Z,7.90
2018-11-04T20:07:47.575Z,7.80
2018-11-04T20:10:17.940Z,7.70
2018-11-04T20:12:53.293Z,7.60
2018-11-04T20:15:21.909Z,7.50
2018-11-04T20:17:56.420Z,7.50
2018-11-04T20:20:27.041Z,7.50
2018-11-04T20:22:56.744Z,7.50
2018-11-04T20:25:30.630Z,7.50
2018-11-04T20:27:59.243Z,7.50
2018-11-04T20:30:27.747Z,7.50
2018-11-04T20:33:06.448Z,7.50
2018-11-04T20:35:35.064Z,7.50
2018-11-04T20:38:03.728Z,7.40
2018-11-04T20:40:37.423Z,7.40
2018-11-04T20:43:08.037Z,7.30
2018-11-04T20:45:36.776Z,7.20
2018-11-04T20:48:11.559Z,7.20
2018-11-04T20:50:49.447Z,7.10
2018-11-04T20:53:18.082Z,7.10
2018-11-04T20:55:52.844Z,7.20
2018-11-04T20:58:25.553Z,7.20
2018-11-04T21:00:54.215Z,7.20
2018-11-04T21:03:26.611Z,7.30
2018-11-04T21:05:58.758Z,7.30
2018-11-04T21:08:28.973Z,7.20
2018-11-04T21:10:58.697Z,7.10
2018-11-04T21:13:27.901Z,7.10
2018-11-04T21:15:57.816Z,7.00
2018-11-04T21:18:26.388Z,7.10
2018-11-04T21:20:55.058Z,7.20
2018-11-04T21:23:25.706Z,7.20
2018-11-04T21:25:54.390Z,7.10
2018-11-04T21:28:26.302Z,7.10
2018-11-04T21:30:54.744Z,7.10
2018-11-04T21:33:23.326Z,7.10
2018-11-04T21:35:51.841Z,7.10
2018-11-04T21:38:23.517Z,7.00
2018-11-04T21:40:53.112Z,7.00
2018-11-04T21:43:22.791Z,6.90
2018-11-04T21:45:55.825Z,7.00
2018-11-04T21:48:24.451Z,7.00
2018-11-04T21:50:53.020Z,7.00
2018-11-04T21:53:22.760Z,7.10
2018-11-04T21:55:53.513Z,7.10
2018-11-04T21:58:23.164Z,7.10
2018-11-04T22:00:51.747Z,7.10
2018-11-04T22:03:22.587Z,7.00
2018-11-04T22:05:55.049Z,6.90
2018-11-04T22:08:25.671Z,6.70
2018-11-04T22:10:55.207Z,6.50
2018-11-04T22:13:23.862Z,6.40
2018-11-04T22:15:52.373Z,6.40
2018-11-04T22:18:21.007Z,6.30
2018-11-04T22:20:49.616Z,6.30
2018-11-04T22:23:19.295Z,6.30
2018-11-04T22:25:47.960Z,6.20
2018-11-04T22:28:19.880Z,6.20
2018-11-04T22:30:50.474Z,6.20
2018-11-04T22:33:19.121Z,6.20
2018-11-04T22:35:49.722Z,6.40
2018-11-04T22:38:20.377Z,6.40
2018-11-04T22:40:48.922Z,6.40
2018-11-04T22:43:18.538Z,6.40
2018-11-04T22:45:48.229Z,6.40
2018-11-04T22:48:16.837Z,6.30
2018-11-04T22:50:45.459Z,6.30
2018-11-04T22:53:16.161Z,6.30
2018-11-04T22:55:44.858Z,6.30
2018-11-04T22:58:13.474Z,6.20
2018-11-04T23:00:46.525Z,6.30
2018-11-04T23:03:15.116Z,6.30
2018-11-04T23:05:43.702Z,6.30
2018-11-04T23:08:12.267Z,6.30
2018-11-04T23:10:40.916Z,6.20
2018-11-04T23:13:13.987Z,6.30
2018-11-04T23:15:43.628Z,6.30
2018-11-04T23:18:12.153Z,6.40
2018-11-04T23:20:40.722Z,6.40
2018-11-04T23:23:09.358Z,6.30
2018-11-04T23:25:38.999Z,6.10
2018-11-04T23:28:21.959Z,6.00
2018-11-04T23:30:51.606Z,5.90
2018-11-04T23:33:21.410Z,5.80
2018-11-04T23:35:51.050Z,5.70
2018-11-04T23:38:21.694Z,5.70
2018-11-04T23:40:51.248Z,5.60
2018-11-04T23:43:21.818Z,5.60
2018-11-04T23:45:52.476Z,5.70
2018-11-04T23:48:24.939Z,5.70
2018-11-04T23:50:56.477Z,5.70
2018-11-04T23:53:29.013Z,5.70
2018-11-04T23:55:58.696Z,5.60
2018-11-04T23:58:27.400Z,5.60
